createdAt,value
2019-02-27T00:04:08.280Z,66.27
2019-02-27T00:09:11.048Z,66.79
2019-02-27T00:14:13.725Z,67.45
2019-02-27T00:19:16.406Z,67.29
2019-02-27T00:24:19.072Z,67.31
2019-02-27T00:29:21.762Z,67.34
2019-02-27T00:34:24.433Z,67.25
2019-02-27T00:39:30.845Z,67.15
2019-02-27T00:44:33.965Z,67.20
2019-02-27T00:49:36.329Z,67.97
2019-02-27T00:54:39.045Z,67.88
2019-02-27T00:59:41.742Z,67.38
2019-02-27T01:04:44.423Z,68.02
2019-02-27T01:09:47.126Z,67.98
2019-02-27T01:14:49.816Z,68.29
2019-02-27T01:19:52.526Z,68.41
2019-02-27T01:24:55.605Z,68.60
2019-02-27T01:29:58.310Z,68.29
2019-02-27T01:35:01.000Z,68.71
2019-02-27T01:40:05.583Z,69.21
2019-02-27T01:45:12.358Z,69.18
2019-02-27T01:50:33.835Z,69.09
2019-02-27T01:55:36.619Z,69.21
2019-02-27T02:00:39.909Z,68.95
2019-02-27T02:05:42.629Z,68.62
2019-02-27T02:10:45.312Z,68.54
2019-02-27T02:16:36.771Z,69.24
2019-02-27T02:22:20.146Z,69.21
2019-02-27T02:28:09.207Z,69.31
2019-02-27T02:33:30.307Z,69.11
2019-02-27T02:39:33.947Z,69.09
2019-02-27T02:45:17.120Z,69.45
2019-02-27T02:51:18.170Z,70.02
2019-02-27T02:56:39.302Z,70.36
2019-02-27T03:02:23.427Z,70.33
2019-02-27T03:08:20.145Z,70.75
2019-02-27T03:14:26.592Z,70.03
2019-02-27T03:20:27.091Z,69.85
2019-02-27T03:26:36.252Z,70.39
2019-02-27T03:32:40.853Z,70.52
2019-02-27T03:38:24.013Z,71.35
2019-02-27T03:44:13.007Z,71.31
2019-02-27T03:50:15.049Z,71.12
2019-02-27T03:56:20.883Z,71.30
2019-02-27T04:02:11.064Z,70.93
2019-02-27T04:08:08.631Z,71.09
2019-02-27T04:13:10.720Z,71.10
2019-02-27T04:18:11.966Z,71.54
2019-02-27T04:23:14.762Z,71.18
2019-02-27T04:28:17.605Z,70.75
2019-02-27T04:33:23.440Z,70.95
2019-02-27T04:38:27.609Z,70.81
2019-02-27T04:43:32.173Z,71.15
2019-02-27T04:48:38.547Z,71.40
2019-02-27T04:53:41.258Z,71.25
2019-02-27T04:58:44.047Z,70.76
2019-02-27T05:03:46.740Z,70.83
2019-02-27T05:08:49.483Z,70.69
2019-02-27T05:13:54.356Z,70.58
2019-02-27T05:18:56.877Z,70.43
2019-02-27T05:23:59.627Z,70.41
2019-02-27T05:29:02.378Z,70.82
2019-02-27T05:34:05.118Z,70.70
2019-02-27T05:39:07.912Z,70.47
2019-02-27T05:44:10.632Z,70.95
2019-02-27T05:49:13.382Z,70.93
2019-02-27T05:54:16.072Z,70.56
2019-02-27T05:59:18.780Z,70.61
2019-02-27T06:04:24.962Z,70.46
2019-02-27T06:09:26.048Z,70.85
2019-02-27T06:14:28.802Z,70.95
2019-02-27T06:19:33.600Z,70.83
2019-02-27T06:24:47.975Z,70.94
2019-02-27T06:29:50.753Z,71.11
2019-02-27T06:34:53.476Z,71.38
2019-02-27T06:39:56.210Z,71.36
2019-02-27T06:44:58.958Z,70.75
2019-02-27T06:50:01.695Z,70.72
2019-02-27T06:55:05.093Z,70.68
2019-02-27T07:00:15.495Z,70.87
2019-02-27T07:05:18.237Z,70.74
2019-02-27T07:10:20.991Z,70.46
2019-02-27T07:15:23.759Z,70.62
2019-02-27T07:20:26.459Z,70.55
2019-02-27T07:25:29.239Z,70.60
2019-02-27T07:30:32.117Z,70.61
2019-02-27T07:35:34.887Z,70.17
2019-02-27T07:40:37.628Z,69.58
2019-02-27T07:45:45.017Z,69.49
2019-02-27T07:50:48.375Z,69.42
2019-02-27T07:55:49.651Z,69.55
2019-02-27T08:00:52.311Z,69.44
2019-02-27T08:05:55.184Z,68.50
2019-02-27T08:10:57.926Z,67.13
2019-02-27T08:16:00.748Z,66.00
2019-02-27T08:21:03.488Z,65.31
2019-02-27T08:26:06.256Z,64.73
2019-02-27T08:31:08.997Z,64.31
2019-02-27T08:36:11.755Z,63.72
2019-02-27T08:41:14.562Z,62.80
2019-02-27T08:46:17.397Z,62.11
2019-02-27T08:51:20.167Z,61.24
2019-02-27T08:56:22.948Z,60.70
2019-02-27T09:01:25.718Z,60.78
2019-02-27T09:06:28.463Z,60.61
2019-02-27T09:11:31.278Z,60.14
2019-02-27T09:16:34.045Z,59.89
2019-02-27T09:21:36.804Z,59.74
2019-02-27T09:26:39.595Z,58.80
2019-02-27T09:31:50.530Z,57.62
2019-02-27T09:36:49.056Z,56.34
2019-02-27T09:41:51.831Z,55.24
2019-02-27T09:47:05.996Z,54.41
2019-02-27T09:52:10.187Z,53.70
2019-02-27T09:57:15.855Z,53.06
2019-02-27T10:02:18.657Z,52.56
2019-02-27T10:07:21.496Z,52.20
2019-02-27T10:12:27.081Z,51.52
2019-02-27T10:17:28.943Z,50.37
2019-02-27T10:22:34.023Z,50.01
2019-02-27T10:27:37.190Z,47.68
2019-02-27T10:32:57.808Z,44.00
2019-02-27T10:38:17.013Z,42.29
2019-02-27T10:43:16.150Z,42.02
2019-02-27T10:48:19.413Z,40.97
2019-02-27T10:53:27.178Z,40.15
2019-02-27T10:58:27.761Z,40.02
2019-02-27T11:03:31.999Z,40.13
2019-02-27T11:08:36.144Z,39.50
2019-02-27T11:13:39.468Z,39.31
2019-02-27T11:18:42.836Z,39.60
2019-02-27T11:23:46.208Z,40.39
2019-02-27T11:28:49.272Z,40.64
2019-02-27T11:33:52.191Z,40.21
2019-02-27T11:38:56.654Z,40.11
2019-02-27T12:28:03.905Z,42.24
2019-02-27T12:33:06.717Z,41.70
2019-02-27T12:38:11.439Z,41.47
2019-02-27T12:43:18.379Z,41.73
2019-02-27T12:48:20.693Z,40.64
2019-02-27T12:53:23.409Z,41.10
2019-02-27T12:58:26.107Z,40.52
2019-02-27T13:03:28.824Z,40.76
2019-02-27T13:08:31.537Z,41.14
2019-02-27T13:13:34.232Z,41.67
2019-02-27T13:18:36.929Z,41.50
2019-02-27T13:23:42.263Z,41.21
2019-02-27T13:28:46.018Z,40.97
2019-02-27T13:33:48.852Z,40.96
2019-02-27T13:38:52.255Z,40.85
2019-02-27T13:43:58.268Z,41.54
2019-02-27T13:49:00.143Z,40.96
2019-02-27T13:54:02.967Z,40.69
2019-02-27T13:59:07.432Z,40.92
2019-02-27T14:04:10.286Z,41.21
2019-02-27T14:09:12.975Z,41.30
2019-02-27T14:14:17.657Z,41.06
2019-02-27T14:19:21.357Z,40.73
2019-02-27T14:24:24.966Z,40.91
2019-02-27T14:29:29.776Z,40.29
2019-02-27T14:34:32.252Z,40.41
2019-02-27T14:39:34.972Z,40.87
2019-02-27T14:44:37.782Z,39.94
2019-02-27T14:49:40.597Z,40.53
2019-02-27T14:54:43.294Z,41.66
2019-02-27T14:59:45.996Z,42.89
2019-02-27T15:04:48.712Z,41.74
2019-02-27T15:09:51.409Z,41.53
2019-02-27T15:14:54.112Z,43.34
2019-02-27T15:19:56.812Z,44.43
2019-02-27T15:24:59.528Z,44.06
2019-02-27T15:30:02.237Z,43.19
2019-02-27T15:35:05.847Z,42.24
2019-02-27T15:40:10.415Z,39.94
2019-02-27T15:45:15.346Z,39.91
2019-02-27T15:50:22.418Z,41.70
2019-02-27T15:55:24.208Z,42.49
2019-02-27T16:00:27.080Z,42.64
2019-02-27T16:05:31.261Z,42.08
2019-02-27T16:10:34.443Z,43.12
2019-02-27T16:15:37.186Z,44.17
2019-02-27T16:20:40.132Z,44.08
2019-02-27T16:25:42.860Z,44.47
2019-02-27T16:30:45.655Z,44.23
2019-02-27T16:35:48.542Z,43.97
2019-02-27T16:40:52.542Z,44.47
2019-02-27T16:45:55.854Z,45.04
2019-02-27T16:51:00.659Z,45.43
2019-02-27T16:56:03.197Z,45.73
2019-02-27T17:01:07.177Z,45.96
2019-02-27T17:06:09.880Z,46.20
2019-02-27T17:11:12.594Z,46.84
2019-02-27T17:16:15.397Z,47.57
2019-02-27T17:21:22.022Z,48.03
2019-02-27T17:26:22.794Z,48.12
2019-02-27T17:31:25.467Z,47.96
2019-02-27T17:36:31.700Z,47.85
2019-02-27T17:41:32.928Z,47.82
2019-02-27T17:46:35.621Z,47.88
2019-02-27T17:51:39.480Z,48.27
2019-02-27T17:56:43.049Z,48.60
2019-02-27T18:01:47.046Z,49.29
2019-02-27T18:06:49.983Z,49.53
2019-02-27T18:11:53.262Z,49.50
2019-02-27T18:16:59.238Z,49.74
2019-02-27T18:22:00.658Z,49.96
2019-02-27T18:27:03.468Z,50.74
2019-02-27T18:32:06.678Z,50.56
2019-02-27T18:37:09.600Z,50.84
2019-02-27T18:42:12.323Z,51.89
2019-02-27T18:47:15.050Z,53.00
2019-02-27T18:52:21.389Z,54.23
2019-02-27T18:57:22.470Z,54.41
2019-02-27T19:02:25.159Z,54.03
2019-02-27T19:07:28.341Z,54.44
2019-02-27T19:12:32.818Z,54.77
2019-02-27T19:17:35.584Z,54.87
2019-02-27T19:22:38.290Z,55.14
2019-02-27T19:27:41.030Z,55.39
2019-02-27T19:32:44.422Z,55.10
2019-02-27T19:37:47.149Z,55.71
2019-02-27T19:42:53.018Z,55.60
2019-02-27T19:47:55.962Z,55.38
2019-02-27T19:53:02.982Z,55.29
2019-02-27T19:58:03.638Z,55.29
2019-02-27T20:03:06.438Z,55.08
2019-02-27T20:08:12.003Z,55.36
2019-02-27T20:13:14.707Z,55.18
2019-02-27T20:18:17.613Z,55.02
2019-02-27T20:23:20.350Z,54.83
2019-02-27T20:28:23.073Z,54.73
2019-02-27T20:33:25.789Z,54.72
2019-02-27T20:38:28.607Z,54.43
2019-02-27T20:43:31.331Z,54.46
2019-02-27T20:48:36.000Z,54.52
2019-02-27T20:53:38.673Z,54.79
2019-02-27T20:58:41.422Z,54.68
2019-02-27T21:03:44.236Z,54.83
2019-02-27T21:08:46.941Z,54.93
2019-02-27T21:13:50.272Z,55.13
2019-02-27T21:18:53.105Z,55.06
2019-02-27T21:23:55.802Z,55.29
2019-02-27T21:28:59.021Z,55.38
2019-02-27T21:34:01.956Z,55.92
2019-02-27T21:39:05.479Z,56.19
2019-02-27T21:44:08.190Z,56.21
2019-02-27T21:49:11.155Z,56.73
2019-02-27T21:54:14.039Z,57.19
2019-02-27T21:59:16.736Z,57.27
2019-02-27T22:04:19.442Z,57.59
2019-02-27T22:09:22.208Z,57.51
2019-02-27T22:14:24.918Z,58.05
2019-02-27T22:19:27.629Z,59.13
2019-02-27T22:24:30.326Z,59.45
2019-02-27T22:29:33.048Z,59.15
2019-02-27T22:34:35.775Z,59.77
2019-02-27T22:39:38.491Z,59.71
2019-02-27T22:44:41.218Z,59.79
2019-02-27T22:49:44.010Z,60.14
2019-02-27T22:54:46.706Z,60.51
2019-02-27T22:59:49.419Z,60.35
2019-02-27T23:04:52.120Z,60.70
2019-02-27T23:09:57.506Z,60.88
2019-02-27T23:14:59.441Z,60.78
2019-02-27T23:20:02.165Z,61.18
2019-02-27T23:25:04.898Z,61.55
2019-02-27T23:30:07.991Z,61.54
2019-02-27T23:35:15.996Z,61.04
2019-02-27T23:40:17.452Z,61.07
2019-02-27T23:45:19.917Z,61.14
2019-02-27T23:50:22.624Z,61.56
2019-02-27T23:55:25.327Z,61.81
